createdAt,value
2018-10-09T00:01:33.692Z,12.02
2018-10-09T00:04:04.415Z,12.02
2018-10-09T00:06:35.102Z,12.02
2018-10-09T00:09:08.170Z,11.99
2018-10-09T00:11:39.021Z,11.93
2018-10-09T00:14:09.708Z,11.86
2018-10-09T00:16:40.450Z,11.85
2018-10-09T00:19:11.177Z,11.85
2018-10-09T00:21:41.989Z,11.93
2018-10-09T00:24:12.642Z,11.95
2018-10-09T00:26:43.241Z,11.97
2018-10-09T00:29:14.187Z,12.06
2018-10-09T00:31:45.174Z,12.15
2018-10-09T00:34:16.107Z,12.16
2018-10-09T00:36:46.991Z,12.12
2018-10-09T00:39:17.797Z,12.13
2018-10-09T00:41:49.325Z,12.09
2018-10-09T00:44:20.253Z,11.98
2018-10-09T00:46:51.148Z,11.90
2018-10-09T00:49:21.794Z,11.90
2018-10-09T00:51:52.428Z,11.86
2018-10-09T00:54:23.229Z,11.75
2018-10-09T00:56:53.911Z,11.76
2018-10-09T00:59:24.629Z,11.85
2018-10-09T01:01:55.133Z,11.99
2018-10-09T01:04:25.824Z,11.99
2018-10-09T01:06:56.540Z,11.94
2018-10-09T01:09:27.633Z,11.85
2018-10-09T01:11:58.439Z,11.78
2018-10-09T01:14:29.287Z,11.60
2018-10-09T01:17:00.235Z,11.44
2018-10-09T01:19:31.198Z,11.35
2018-10-09T01:22:02.127Z,11.29
2018-10-09T01:24:32.799Z,11.25
2018-10-09T01:27:03.537Z,11.23
2018-10-09T01:29:34.209Z,11.23
2018-10-09T01:32:05.126Z,11.20
2018-10-09T01:34:36.285Z,11.19
2018-10-09T01:37:07.217Z,11.21
2018-10-09T01:39:39.099Z,11.23
2018-10-09T01:42:10.164Z,11.23
2018-10-09T01:44:40.960Z,11.25
2018-10-09T01:47:11.777Z,11.25
2018-10-09T01:49:42.670Z,11.27
2018-10-09T01:52:13.284Z,11.29
2018-10-09T01:54:43.964Z,11.33
2018-10-09T01:57:14.810Z,11.39
2018-10-09T01:59:45.442Z,11.42
2018-10-09T02:02:16.243Z,11.49
2018-10-09T02:04:47.081Z,11.50
2018-10-09T02:07:17.892Z,11.54
2018-10-09T02:09:48.791Z,11.48
2018-10-09T02:12:19.847Z,11.42
2018-10-09T02:14:51.203Z,11.34
2018-10-09T02:17:22.321Z,11.27
2018-10-09T02:19:53.214Z,11.23
2018-10-09T02:22:24.060Z,11.18
2018-10-09T02:24:54.888Z,11.18
2018-10-09T02:27:25.785Z,11.12
2018-10-09T02:29:56.379Z,11.05
2018-10-09T02:32:27.089Z,11.01
2018-10-09T02:34:57.775Z,10.95
2018-10-09T02:37:28.521Z,10.84
2018-10-09T02:39:59.323Z,10.74
2018-10-09T02:42:30.239Z,10.66
2018-10-09T02:45:01.415Z,10.59
2018-10-09T02:47:32.198Z,10.51
2018-10-09T02:50:02.998Z,10.42
2018-10-09T02:52:33.692Z,10.38
2018-10-09T02:55:04.775Z,10.35
2018-10-09T02:57:35.515Z,10.37
2018-10-09T03:00:06.518Z,10.38
2018-10-09T03:02:37.366Z,10.37
2018-10-09T03:05:08.528Z,10.35
2018-10-09T03:07:39.280Z,10.32
2018-10-09T03:10:09.993Z,10.35
2018-10-09T03:12:40.913Z,10.40
2018-10-09T03:15:11.795Z,10.38
2018-10-09T03:17:42.510Z,10.36
2018-10-09T03:20:13.132Z,10.35
2018-10-09T03:22:44.216Z,10.35
2018-10-09T03:25:15.109Z,10.37
2018-10-09T03:27:45.783Z,10.37
2018-10-09T03:30:16.834Z,10.39
2018-10-09T03:32:47.772Z,10.43
2018-10-09T03:35:18.731Z,10.44
2018-10-09T03:37:49.377Z,10.42
2018-10-09T03:40:20.240Z,10.36
2018-10-09T03:42:50.895Z,10.31
2018-10-09T03:45:21.731Z,10.31
2018-10-09T03:47:52.441Z,10.28
2018-10-09T03:50:23.113Z,10.17
2018-10-09T03:52:54.169Z,10.07
2018-10-09T03:55:24.978Z,9.98
2018-10-09T03:57:55.885Z,9.88
2018-10-09T04:00:26.735Z,9.80
2018-10-09T04:02:58.172Z,9.81
2018-10-09T04:05:28.977Z,9.87
2018-10-09T04:08:00.216Z,9.99
2018-10-09T04:10:30.964Z,10.11
2018-10-09T04:13:02.847Z,10.17
2018-10-09T04:15:33.718Z,10.24
2018-10-09T04:18:04.442Z,10.28
2018-10-09T04:20:35.970Z,10.29
2018-10-09T04:23:06.987Z,10.30
2018-10-09T04:25:37.729Z,10.30
2018-10-09T04:28:08.720Z,10.29
2018-10-09T04:30:39.593Z,10.27
2018-10-09T04:33:10.717Z,10.26
2018-10-09T04:35:42.950Z,10.18
2018-10-09T04:38:13.703Z,10.14
2018-10-09T04:40:44.889Z,10.07
2018-10-09T04:43:16.552Z,10.00
2018-10-09T04:45:47.922Z,9.94
2018-10-09T04:48:19.396Z,9.91
2018-10-09T04:50:50.257Z,9.83
2018-10-09T04:53:20.963Z,9.81
2018-10-09T04:55:51.609Z,9.86
2018-10-09T04:58:23.246Z,9.97
2018-10-09T05:00:54.044Z,9.98
2018-10-09T05:03:25.247Z,9.97
2018-10-09T05:05:56.024Z,10.01
2018-10-09T05:08:26.699Z,10.05
2018-10-09T05:10:57.816Z,10.09
2018-10-09T05:13:28.768Z,10.11
2018-10-09T05:15:59.718Z,10.11
2018-10-09T05:18:30.685Z,10.10
2018-10-09T05:21:01.347Z,10.15
2018-10-09T05:23:32.234Z,10.23
2018-10-09T05:26:03.339Z,10.30
2018-10-09T05:28:34.318Z,10.31
2018-10-09T05:31:05.386Z,10.29
2018-10-09T05:33:36.705Z,10.30
2018-10-09T05:36:07.897Z,10.24
2018-10-09T05:38:38.857Z,10.22
2018-10-09T05:41:09.726Z,10.27
2018-10-09T05:43:40.656Z,10.33
2018-10-09T05:46:11.574Z,10.40
2018-10-09T05:48:42.356Z,10.45
2018-10-09T05:51:13.265Z,10.46
2018-10-09T05:53:44.608Z,10.53
2018-10-09T05:56:15.722Z,10.64
2018-10-09T05:58:46.805Z,10.72
2018-10-09T06:01:17.643Z,10.83
2018-10-09T06:03:48.971Z,10.93
2018-10-09T06:06:19.966Z,11.05
2018-10-09T06:08:50.693Z,10.96
2018-10-09T06:11:21.528Z,10.69
2018-10-09T06:13:52.473Z,10.78
2018-10-09T06:16:23.350Z,11.02
2018-10-09T06:18:54.193Z,11.16
2018-10-09T06:21:25.324Z,11.33
2018-10-09T06:23:56.267Z,11.58
2018-10-09T06:26:27.193Z,11.84
2018-10-09T06:28:57.957Z,12.20
2018-10-09T06:31:28.851Z,12.43
2018-10-09T06:33:59.852Z,12.69
2018-10-09T06:36:31.311Z,12.55
2018-10-09T06:39:02.108Z,12.49
2018-10-09T06:41:32.806Z,12.82
2018-10-09T06:44:03.681Z,13.03
2018-10-09T06:46:34.982Z,13.15
2018-10-09T06:49:05.975Z,13.30
2018-10-09T06:51:36.843Z,13.65
2018-10-09T06:54:08.590Z,13.91
2018-10-09T06:56:39.795Z,14.08
2018-10-09T06:59:11.625Z,14.27
2018-10-09T07:01:42.783Z,14.54
2018-10-09T07:04:14.356Z,14.55
2018-10-09T07:06:45.229Z,14.45
2018-10-09T07:09:16.219Z,14.38
2018-10-09T07:11:47.090Z,14.26
2018-10-09T07:14:17.825Z,14.33
2018-10-09T07:16:48.481Z,14.84
2018-10-09T07:19:19.509Z,15.27
2018-10-09T07:21:50.294Z,16.36
2018-10-09T07:24:21.856Z,18.02
2018-10-09T07:26:53.923Z,19.19
2018-10-09T07:29:24.855Z,20.34
2018-10-09T07:31:55.809Z,21.63
2018-10-09T07:34:27.131Z,23.09
2018-10-09T07:36:58.771Z,23.23
2018-10-09T07:39:31.933Z,23.19
2018-10-09T07:42:02.982Z,23.49
2018-10-09T07:44:34.217Z,23.81
2018-10-09T07:47:05.301Z,24.56
2018-10-09T07:49:36.488Z,24.44
2018-10-09T07:52:08.953Z,25.02
2018-10-09T07:54:40.447Z,25.30
2018-10-09T07:57:12.476Z,25.88
2018-10-09T07:59:43.528Z,26.43
2018-10-09T08:02:14.473Z,26.35
2018-10-09T08:04:45.520Z,26.81
2018-10-09T08:07:23.350Z,26.79
2018-10-09T08:09:54.150Z,26.82
2018-10-09T08:12:25.103Z,27.62
2018-10-09T08:14:56.061Z,28.12
2018-10-09T08:17:26.964Z,28.86
2018-10-09T08:19:58.012Z,28.61
2018-10-09T08:22:28.724Z,28.95
2018-10-09T08:25:00.022Z,29.78
2018-10-09T08:27:31.796Z,30.24
2018-10-09T08:30:02.628Z,29.99
2018-10-09T08:32:33.693Z,29.92
2018-10-09T08:35:05.161Z,30.38
2018-10-09T08:37:36.917Z,30.59
2018-10-09T08:40:08.201Z,30.71
2018-10-09T08:42:40.195Z,31.06
2018-10-09T08:45:11.385Z,29.71
2018-10-09T08:47:42.676Z,30.28
2018-10-09T08:50:13.887Z,31.54
2018-10-09T08:52:44.706Z,31.95
2018-10-09T08:55:15.888Z,32.35
2018-10-09T08:57:46.703Z,31.26
2018-10-09T09:00:17.541Z,30.69
2018-10-09T09:02:48.264Z,31.19
2018-10-09T09:05:19.998Z,32.40
2018-10-09T09:07:51.529Z,32.80
2018-10-09T09:10:22.207Z,33.07
2018-10-09T09:12:55.015Z,33.17
2018-10-09T09:15:28.430Z,33.76
2018-10-09T09:18:01.902Z,34.51
2018-10-09T09:20:33.384Z,34.84
2018-10-09T09:23:04.503Z,34.66
2018-10-09T09:25:35.866Z,33.49
2018-10-09T09:28:07.932Z,33.74
2018-10-09T09:30:38.533Z,34.11
2018-10-09T09:33:09.486Z,34.05
2018-10-09T09:35:41.003Z,34.03
2018-10-09T09:38:15.205Z,34.36
2018-10-09T09:40:49.307Z,33.99
2018-10-09T09:43:20.479Z,33.93
2018-10-09T09:45:51.825Z,33.89
2018-10-09T09:48:22.887Z,33.51
2018-10-09T09:50:53.567Z,31.99
2018-10-09T09:53:23.975Z,32.08
2018-10-09T09:55:54.937Z,31.54
2018-10-09T09:58:25.805Z,31.01
2018-10-09T10:00:58.667Z,30.66
2018-10-09T10:03:29.472Z,31.86
2018-10-09T10:06:00.467Z,33.15
2018-10-09T10:08:31.333Z,33.36
2018-10-09T10:11:02.979Z,32.57
2018-10-09T10:13:33.964Z,32.50
2018-10-09T10:16:05.088Z,32.10
2018-10-09T10:18:36.086Z,31.99
2018-10-09T10:21:06.995Z,31.11
2018-10-09T10:23:37.894Z,31.94
2018-10-09T10:26:08.752Z,32.98
2018-10-09T10:28:39.776Z,31.44
2018-10-09T10:31:10.707Z,29.04
2018-10-09T10:33:41.398Z,28.19
2018-10-09T10:36:12.075Z,27.61
2018-10-09T10:38:42.645Z,27.24
2018-10-09T10:41:13.758Z,26.73
2018-10-09T10:43:44.403Z,26.26
2018-10-09T10:46:15.230Z,27.48
2018-10-09T10:48:58.408Z,29.77
2018-10-09T10:51:29.806Z,31.11
2018-10-09T10:54:01.802Z,31.13
2018-10-09T10:56:34.202Z,31.70
2018-10-09T10:59:05.319Z,32.11
2018-10-09T11:01:36.385Z,31.71
2018-10-09T11:04:08.253Z,31.84
2018-10-09T11:06:38.968Z,33.03
2018-10-09T11:09:12.167Z,33.64
2018-10-09T11:11:43.223Z,32.99
2018-10-09T11:14:14.662Z,32.71
2018-10-09T11:16:46.765Z,32.95
2018-10-09T11:19:17.632Z,33.44
2018-10-09T11:21:49.081Z,33.39
2018-10-09T11:24:20.720Z,33.17
2018-10-09T11:26:52.085Z,32.88
2018-10-09T11:29:24.164Z,32.89
2018-10-09T11:31:55.708Z,31.87
2018-10-09T11:34:27.100Z,32.30
2018-10-09T11:36:58.789Z,32.26
2018-10-09T11:39:29.516Z,31.84
2018-10-09T11:42:00.508Z,32.35
2018-10-09T11:44:31.963Z,31.48
2018-10-09T11:47:02.850Z,29.07
2018-10-09T11:49:33.859Z,29.16
2018-10-09T11:52:05.057Z,27.64
2018-10-09T11:54:36.102Z,26.83
2018-10-09T11:57:07.524Z,27.94
2018-10-09T11:59:38.606Z,27.83
2018-10-09T12:02:09.529Z,28.35
2018-10-09T12:04:40.203Z,29.81
2018-10-09T12:07:11.088Z,27.69
2018-10-09T12:09:42.535Z,28.42
2018-10-09T12:12:13.866Z,30.14
2018-10-09T12:14:44.818Z,30.67
2018-10-09T12:17:15.845Z,31.15
2018-10-09T12:19:46.925Z,32.27
2018-10-09T12:22:18.002Z,32.70
2018-10-09T12:24:48.975Z,32.90
2018-10-09T12:27:20.129Z,33.62
2018-10-09T12:29:51.085Z,33.56
2018-10-09T12:32:22.368Z,33.10
2018-10-09T12:34:54.218Z,33.94
2018-10-09T12:37:25.057Z,34.23
2018-10-09T12:39:57.346Z,34.61
2018-10-09T12:42:28.251Z,33.43
2018-10-09T12:44:59.383Z,32.75
2018-10-09T12:47:30.155Z,33.49
2018-10-09T12:50:01.490Z,32.70
2018-10-09T12:52:32.992Z,32.07
2018-10-09T12:55:04.038Z,31.81
2018-10-09T12:57:35.111Z,31.48
2018-10-09T13:00:06.692Z,31.96
2018-10-09T13:02:38.733Z,31.92
2018-10-09T13:05:10.086Z,32.85
2018-10-09T13:07:41.746Z,33.20
2018-10-09T13:10:13.106Z,33.34
2018-10-09T13:12:44.175Z,32.42
2018-10-09T13:15:15.810Z,30.70
2018-10-09T13:17:46.777Z,30.04
2018-10-09T13:20:18.934Z,30.25
2018-10-09T13:22:50.913Z,30.14
2018-10-09T13:25:21.835Z,30.05
2018-10-09T13:27:53.545Z,29.58
2018-10-09T13:30:24.556Z,28.91
2018-10-09T13:32:55.340Z,29.40
2018-10-09T13:35:26.513Z,30.47
2018-10-09T13:37:59.119Z,31.05
2018-10-09T13:40:30.084Z,31.53
2018-10-09T13:43:01.471Z,31.90
2018-10-09T13:45:33.223Z,32.41
2018-10-09T13:48:04.206Z,32.07
2018-10-09T13:50:35.281Z,32.37
2018-10-09T13:53:06.360Z,31.83
2018-10-09T13:55:37.454Z,32.04
2018-10-09T13:58:08.341Z,31.87
2018-10-09T14:00:39.383Z,31.03
2018-10-09T14:03:10.525Z,30.65
2018-10-09T14:05:41.639Z,30.91
2018-10-09T14:08:12.504Z,31.02
2018-10-09T14:10:43.591Z,31.32
2018-10-09T14:13:14.679Z,31.44
2018-10-09T14:15:46.603Z,30.86
2018-10-09T14:18:17.743Z,30.10
2018-10-09T14:20:48.751Z,28.87
2018-10-09T14:23:19.819Z,28.53
2018-10-09T14:25:51.054Z,28.83
2018-10-09T14:28:22.062Z,29.20
2018-10-09T14:30:53.177Z,29.10
2018-10-09T14:33:23.994Z,29.36
2018-10-09T14:35:54.847Z,29.46
2018-10-09T14:38:26.112Z,29.80
2018-10-09T14:40:57.557Z,30.03
2018-10-09T14:43:28.642Z,30.27
2018-10-09T14:45:59.956Z,30.41
2018-10-09T14:48:31.277Z,30.44
2018-10-09T14:51:02.395Z,30.45
2018-10-09T14:53:37.494Z,30.57
2018-10-09T14:56:08.786Z,30.76
2018-10-09T14:58:40.547Z,30.67
2018-10-09T15:01:11.876Z,30.37
2018-10-09T15:03:43.101Z,29.59
2018-10-09T15:06:14.317Z,29.11
2018-10-09T15:08:45.563Z,29.07
2018-10-09T15:11:17.207Z,29.04
2018-10-09T15:13:48.521Z,29.18
2018-10-09T15:16:19.548Z,29.35
2018-10-09T15:18:50.770Z,29.30
2018-10-09T15:21:21.869Z,29.27
2018-10-09T15:23:53.360Z,29.28
2018-10-09T15:26:24.854Z,29.11
2018-10-09T15:28:59.549Z,28.99
2018-10-09T15:31:30.744Z,28.95
2018-10-09T15:34:02.431Z,28.84
2018-10-09T15:36:33.706Z,28.57
2018-10-09T15:39:06.773Z,28.53
2018-10-09T15:41:38.933Z,28.41
2018-10-09T15:44:10.290Z,28.25
2018-10-09T15:46:41.279Z,28.21
2018-10-09T15:49:13.277Z,27.93
2018-10-09T15:51:45.023Z,27.56
2018-10-09T15:54:17.433Z,27.00
2018-10-09T15:56:48.636Z,26.43
2018-10-09T15:59:20.333Z,26.07
2018-10-09T16:01:52.531Z,25.77
2018-10-09T16:04:23.945Z,25.47
2018-10-09T16:06:55.323Z,25.07
2018-10-09T16:09:26.746Z,24.61
2018-10-09T16:11:58.132Z,24.19
2018-10-09T16:14:29.303Z,23.92
2018-10-09T16:17:01.491Z,23.47
2018-10-09T16:19:32.527Z,23.08
2018-10-09T16:22:04.094Z,22.62
2018-10-09T16:24:35.197Z,22.22
2018-10-09T16:27:08.355Z,21.89
2018-10-09T16:29:39.139Z,21.57
2018-10-09T16:32:11.084Z,21.28
2018-10-09T16:34:42.317Z,21.03
2018-10-09T16:37:13.397Z,20.68
2018-10-09T16:39:44.399Z,20.52
2018-10-09T16:42:15.343Z,20.40
2018-10-09T16:44:46.181Z,20.25
2018-10-09T16:47:17.065Z,20.15
2018-10-09T16:49:47.875Z,19.94
2018-10-09T16:52:20.116Z,19.81
2018-10-09T16:54:52.532Z,19.68
2018-10-09T16:57:23.600Z,19.59
2018-10-09T16:59:55.146Z,19.52
2018-10-09T17:02:26.202Z,19.47
2018-10-09T17:04:57.469Z,19.41
2018-10-09T17:07:29.315Z,19.40
2018-10-09T17:10:00.383Z,19.42
2018-10-09T17:12:32.127Z,19.35
2018-10-09T17:15:03.768Z,19.30
2018-10-09T17:17:35.433Z,19.41
2018-10-09T17:20:07.689Z,19.43
2018-10-09T17:22:39.864Z,19.51
2018-10-09T17:25:13.394Z,19.55
2018-10-09T17:27:45.959Z,19.55
2018-10-09T17:30:18.887Z,19.59
2018-10-09T17:32:51.736Z,19.62
2018-10-09T17:35:24.509Z,19.52
2018-10-09T17:37:56.876Z,19.48
2018-10-09T17:40:30.524Z,19.44
2018-10-09T17:43:03.972Z,19.39
2018-10-09T17:45:36.204Z,19.34
2018-10-09T17:48:08.359Z,19.27
2018-10-09T17:50:40.774Z,19.23
2018-10-09T17:53:13.555Z,19.18
2018-10-09T17:55:46.063Z,19.10
2018-10-09T17:58:18.926Z,18.98
2018-10-09T18:00:53.363Z,18.86
2018-10-09T18:03:26.509Z,18.80
2018-10-09T18:05:58.830Z,18.73
2018-10-09T18:08:31.670Z,18.63
2018-10-09T18:11:10.604Z,18.55
2018-10-09T18:13:43.160Z,18.42
2018-10-09T18:16:16.240Z,18.39
2018-10-09T18:18:48.940Z,18.42
2018-10-09T18:21:21.859Z,18.34
2018-10-09T18:23:54.297Z,18.29
2018-10-09T18:26:27.556Z,18.24
2018-10-09T18:29:00.329Z,18.18
2018-10-09T18:31:32.910Z,18.12
2018-10-09T18:34:06.421Z,18.03
2018-10-09T18:36:40.726Z,17.96
2018-10-09T18:39:15.978Z,17.88
2018-10-09T18:41:51.661Z,17.83
2018-10-09T18:44:25.766Z,17.73
2018-10-09T18:47:00.287Z,17.63
2018-10-09T18:49:33.316Z,17.55
2018-10-09T18:52:06.792Z,17.49
2018-10-09T18:54:41.266Z,17.42
2018-10-09T18:57:17.493Z,17.37
2018-10-09T18:59:50.773Z,17.37
2018-10-09T19:02:24.357Z,17.35
2018-10-09T19:05:00.153Z,17.30
2018-10-09T19:07:35.252Z,17.24
2018-10-09T19:10:10.500Z,17.22
2018-10-09T19:12:43.363Z,17.19
2018-10-09T19:15:16.619Z,17.16
2018-10-09T19:17:49.460Z,17.11
2018-10-09T19:20:21.944Z,17.07
2018-10-09T19:22:54.394Z,17.02
2018-10-09T19:25:27.084Z,16.97
2018-10-09T19:28:00.043Z,16.92
2018-10-09T19:30:33.221Z,16.87
2018-10-09T19:33:05.998Z,16.82
2018-10-09T19:35:39.355Z,16.75
2018-10-09T19:38:12.792Z,16.69
2018-10-09T19:40:45.762Z,16.64
2018-10-09T19:43:18.763Z,16.59
2018-10-09T19:45:52.865Z,16.33
2018-10-09T19:48:25.425Z,16.28
2018-10-09T19:50:58.469Z,16.20
2018-10-09T19:53:32.106Z,16.16
2018-10-09T19:56:03.775Z,16.16
2018-10-09T19:58:36.133Z,16.17
2018-10-09T20:01:09.401Z,16.21
2018-10-09T20:03:42.286Z,16.23
2018-10-09T20:06:14.584Z,16.19
2018-10-09T20:08:46.055Z,16.17
2018-10-09T20:11:23.558Z,16.06
2018-10-09T20:13:54.690Z,15.89
2018-10-09T20:16:26.575Z,15.76
2018-10-09T20:18:57.966Z,15.72
2018-10-09T20:21:29.370Z,15.70
2018-10-09T20:24:00.341Z,15.69
2018-10-09T20:26:31.355Z,15.70
2018-10-09T20:29:02.679Z,15.71
2018-10-09T20:31:33.930Z,15.72
2018-10-09T20:34:04.936Z,15.67
2018-10-09T20:36:36.542Z,15.51
2018-10-09T20:39:09.068Z,15.37
2018-10-09T20:41:40.550Z,15.31
2018-10-09T20:44:11.416Z,15.39
2018-10-09T20:46:42.730Z,15.43
2018-10-09T20:49:14.106Z,15.53
2018-10-09T20:51:45.611Z,15.58
2018-10-09T20:54:16.633Z,15.55
2018-10-09T20:56:47.815Z,15.58
2018-10-09T20:59:18.753Z,15.57
2018-10-09T21:01:49.838Z,15.54
2018-10-09T21:04:21.480Z,15.50
2018-10-09T21:06:52.961Z,15.49
2018-10-09T21:09:24.450Z,15.45
2018-10-09T21:11:55.178Z,15.39
2018-10-09T21:14:26.039Z,15.36
2018-10-09T21:16:56.926Z,15.23
2018-10-09T21:19:35.013Z,15.16
2018-10-09T21:22:06.309Z,15.03
2018-10-09T21:24:37.243Z,14.99
2018-10-09T21:27:08.471Z,14.99
2018-10-09T21:32:57.846Z,14.90
2018-10-09T21:35:28.983Z,14.87
2018-10-09T21:37:59.868Z,14.81
2018-10-09T21:40:30.769Z,14.80
2018-10-09T21:43:01.417Z,14.79
2018-10-09T21:45:32.340Z,14.83
2018-10-09T21:48:04.295Z,14.77
2018-10-09T21:50:35.104Z,14.70
2018-10-09T21:53:05.901Z,14.63
2018-10-09T21:55:36.812Z,14.57
2018-10-09T21:58:07.761Z,14.55
2018-10-09T22:00:43.235Z,14.50
2018-10-09T22:03:14.055Z,14.47
2018-10-09T22:05:45.057Z,14.46
2018-10-09T22:08:15.975Z,14.46
2018-10-09T22:10:46.843Z,14.42
2018-10-09T22:13:38.924Z,14.38
2018-10-09T22:16:12.806Z,14.41
2018-10-09T22:18:43.745Z,14.39
2018-10-09T22:21:14.719Z,14.17
2018-10-09T22:23:45.768Z,14.04
2018-10-09T22:26:16.702Z,13.99
2018-10-09T22:28:47.744Z,13.98
2018-10-09T22:31:18.642Z,13.97
2018-10-09T22:33:49.301Z,13.96
2018-10-09T22:36:20.200Z,13.90
2018-10-09T22:38:51.102Z,13.83
2018-10-09T22:41:22.165Z,13.84
2018-10-09T22:43:52.899Z,13.86
2018-10-09T22:46:24.043Z,13.84
2018-10-09T22:48:55.003Z,13.82
2018-10-09T22:51:26.966Z,13.84
2018-10-09T22:53:57.739Z,13.85
2018-10-09T22:56:28.313Z,13.82
2018-10-09T22:58:59.325Z,13.86
2018-10-09T23:01:30.028Z,13.87
2018-10-09T23:04:01.013Z,13.88
2018-10-09T23:06:32.294Z,13.84
2018-10-09T23:09:03.295Z,13.80
2018-10-09T23:11:34.166Z,13.76
2018-10-09T23:14:05.524Z,13.69
2018-10-09T23:16:36.368Z,13.64
2018-10-09T23:19:07.507Z,13.63
2018-10-09T23:21:38.179Z,13.58
2018-10-09T23:24:09.287Z,13.52
2018-10-09T23:26:40.268Z,13.47
2018-10-09T23:29:11.122Z,13.40
2018-10-09T23:31:42.101Z,13.36
2018-10-09T23:34:13.179Z,13.33
2018-10-09T23:36:43.991Z,13.27
2018-10-09T23:39:14.821Z,13.19
2018-10-09T23:41:45.562Z,13.12
2018-10-09T23:44:16.404Z,13.06
2018-10-09T23:46:48.152Z,13.02
2018-10-09T23:49:18.989Z,13.02
2018-10-09T23:51:49.970Z,13.05
2018-10-09T23:54:21.061Z,13.04
2018-10-09T23:56:51.704Z,13.05
2018-10-09T23:59:22.474Z,13.01
